Aviation Digital Data Service (ADDS)

Output produced by METARs form (0957 UTC 19 January 2019)
found at http://www.aviationweather.gov/metar/data/
 
KALB 190951Z 01008KT 10SM -SN OVC043 M04/M09 A3023 RMK AO2 SNB48 SLP242 PCPN VRY LGT P0000 T10391089
KALB 190538Z 1906/2006 33006KT P6SM BKN050 
     FM191900 03007KT 4SM -SN OVC040 
     FM192100 03007KT 1 1/2SM -SN OVC030 
     FM200000 04008KT 1/2SM SN OVC015 
     FM200400 04008KT 1/2SM SN OVC007
       
KGVQ 190856Z AUTO 05010KT 8SM -SN OVC008 M08/M09 A3023 RMK AO2 SLP267 P0000 60000 T10781094 51009 FZRANO
KBGM 190953Z AUTO 35005KT 9SM OVC031 M06/M07 A3013 RMK AO2 SNB36E47 SLP225 P0000 T10561072
KBGM 190937Z 1910/2006 36005KT P6SM BKN028 OVC070 
     FM191600 07007KT P6SM -SN SCT015 OVC025 
     FM191800 10005KT 1 1/2SM -SN OVC015 
     FM192100 10006KT 1/2SM SN OVC007 
     FM200400 09005KT 1/4SM +SN OVC005
       
KBUF 190954Z 04011KT 10SM BKN010 OVC022 M07/M09 A3020 RMK AO2 SLP238 T10671089 $
KBUF 190943Z 1910/2006 02010KT P6SM OVC015 
     FM191300 06009KT 2SM -SN OVC015 
     FM191600 06012G20KT 1/2SM SN OVC007 
     FM200200 05016G24KT 1/4SM +SN BLSN OVC004
       
KN03 190935Z AUTO 00000KT 5SM -SN SCT018 BKN038 OVC120 M05/M05 A3016 RMK AO2
KDSV 190954Z AUTO 00000KT 10SM OVC028 M04/M09 A3019 RMK AO2 SLP239 T10391094
KDKK 190953Z AUTO 05007KT 10SM OVC085 M04/M09 A3018 RMK AO2 SLP231 T10441089
KHTO 190935Z AUTO 00000KT 10SM CLR M05/M06 A3020 RMK AO2 T10511060
KELM 190953Z AUTO 03003KT 10SM OVC038 M02/M08 A3017 RMK AO2 SLP228 T10221078
KELM 190937Z 1910/2006 VRB03KT P6SM BKN035 
     TEMPO 1913/1917 2SM -SN OVC020 
     FM191700 07005KT 1 1/2SM -SN OVC018 
     FM192000 07005KT 1/2SM SN OVC009 
     FM200300 04007KT 1/4SM +SN OVC006
       
KFRG 190953Z VRB04KT 10SM OVC043 00/M05 A3020 RMK AO2 SLP226 T00001050
KFZY 190954Z AUTO 01008KT 10SM BKN042 OVC095 M11/M16 A3026 RMK AO2 SLP253 T11061156
KGFL 190953Z AUTO 06009KT 10SM SCT018 OVC043 M08/M12 A3025 RMK AO2 SLP254 T10781122
KGFL 190538Z 1906/2006 33005KT P6SM BKN050 
     FM191900 03007KT 3SM -SN OVC030 
     FM192100 03007KT 1SM -SN OVC025 
     FM192300 03008KT 1/2SM SN OVC015 
     FM200400 03008KT 1/2SM SN OVC007
       
KISP 190856Z AUTO 35005KT 10SM OVC045 M01/M03 A3019 RMK AO2 SLP222 T10061033 50009
KISP 190833Z 1909/2006 33006KT P6SM SCT040 BKN250 
     FM191400 04007KT P6SM SCT025 BKN120 
     FM192000 08012KT P6SM SCT020 OVC040 
     FM192300 09012KT 5SM -SN BR SCT009 OVC015 
     FM200100 09013G23KT 1 1/2SM -SN BR SCT009 OVC015 
     FM200300 09013G26KT 1SM RASN BR OVC009 
     FM200500 09013G26KT 2SM RA BR OVC009
       
KITH 190951Z AUTO 00000KT 9SM -SN OVC016 M04/M06 A3018 RMK AO2 P0000
KITH 190937Z 1910/2006 36007KT P6SM BKN015 
     FM191100 04004KT P6SM BKN025 
     TEMPO 1913/1917 2SM -SN OVC018 
     FM191700 07005KT 1 1/2SM -SN OVC015 
     FM192000 08006KT 1/2SM SN SCT007 OVC012 
     FM200400 09006KT 1/4SM +SN OVC007
       
KJHW 190856Z AUTO 06007KT 10SM SCT024 BKN041 OVC060 M07/M10 A3013 RMK AO2 SLP231 T10671100 58004 FZRANO
KJHW 190943Z 1910/2006 03005KT 5SM -SHSN OVC025 
     FM191100 05006KT 1SM -SN OVC015 
     FM191400 08008KT 3SM -SHSN OVC015 
     FM192000 07010KT 1/2SM SN OVC007 
     FM192300 07012KT 1/4SM +SN OVC003
       
KNY0 190937Z AUTO 00000KT 10SM OVC037 M06/M09 A3019 RMK AO2
KMSS 190953Z AUTO 36005KT 10SM BKN045 M20/M25 A3042 RMK AO2 SLP313 T12001250
KMSS 190531Z 1906/2006 35007KT P6SM SCT045 
     FM191100 36005KT P6SM BKN140 
     FM192000 06008KT P6SM VCSH OVC040 
     FM192200 06009KT P6SM VCSH OVC030 
     FM200100 06009KT 1 1/2SM -SN BR OVC023
       
KMTP 190954Z AUTO 35009KT 02/M05 A3020 RMK AO1 SLP227 T00221050
KMGJ 190954Z AUTO 00000KT 10SM CLR M05/M08 A3017 RMK AO2 SLP222 T10501083
KMSV 190856Z AUTO 29005KT 10SM CLR M07/M08 A3014 RMK AO2 SLP228 T10671083 50008 FZRANO
KSWF 190945Z 27005KT 10SM FEW045 M06/M07 A3018
KSWF 190833Z 1909/2012 29005KT P6SM BKN050 
     FM191100 02004KT P6SM SCT050 SCT150 
     FM191400 04005KT P6SM SCT035 BKN120 
     FM191800 07006KT P6SM BKN035 
     FM192100 08007KT P6SM -SN SCT020 OVC040 
     FM192300 08008KT 1 1/2SM -SN BR SCT009 OVC015 
     FM200300 07008KT 1/2SM SN FG OVC009 
     FM200800 04009KT 1SM PLSN BR OVC009 
     FM201100 03008KT 2SM FZRA OVC009 AMD NOT SKED
       
KJFK 190951Z 32006KT 10SM FEW045 SCT250 M01/M06 A3022 RMK AO2 SLP233 T10061056
KJFK 190833Z 1909/2012 32008KT P6SM FEW040 BKN250 
     FM191200 02007KT P6SM SCT120 BKN250 
     FM191500 05007KT P6SM SCT025 BKN120 
     FM192100 09011KT 6SM -SN SCT020 OVC035 
     FM192300 09014G22KT 1SM -SN BR SCT009 OVC015 
     FM200300 08014G24KT 2SM RA BR OVC009 
     FM201000 12013KT 2SM RA BR OVC009
       
KLGA 190951Z 31006KT 10SM SCT250 01/M06 A3020 RMK AO2 SLP228 T00111061
KLGA 190833Z 1909/2012 32009KT P6SM FEW040 SCT250 
     FM191200 02007KT P6SM SCT120 BKN250 
     FM191500 05007KT P6SM SCT025 BKN120 
     FM192100 08010KT 6SM -SN SCT020 OVC035 
     FM192300 09012G20KT 1SM -SN BR SCT009 OVC015 
     FM200400 08013G24KT 2SM RA BR OVC009 
     FM201100 07009KT 2SM RA BR OVC009
       
KIAG 190953Z AUTO 06012KT 10SM OVC011 M07/M09 A3022 RMK AO2 UPE0857 SLP250 P0000 T10671094
KIAG 190943Z 1910/2006 02012KT P6SM OVC015 
     FM191300 06012KT 2SM -SN OVC015 
     FM191600 06014G22KT 1/2SM SN OVC007 
     FM200100 06016G24KT 1/4SM +SN BLSN OVC004
       
KOGS 190935Z AUTO 01006KT 10SM OVC040 M20/M27 A3038 RMK AO2
KOLE 190935Z AUTO 03003KT 10SM OVC021 M08/M11 A3009 RMK AO2
KPEO 190953Z AUTO VRB06KT 4SM -SN BR OVC023 M08/M10 A3020 RMK AO2 SNB15 SLP242 P0000 T10781100
KPBG 190953Z AUTO 01017KT 10SM BKN050 M14/M22 A3036 RMK AO2 SLP284 T11441217
KPBG 190531Z 1906/2006 34011KT P6SM OVC035 
     FM190900 35010KT P6SM BKN150 
     FM191400 01007KT P6SM BKN090 
     FM192000 01006KT P6SM VCSH OVC045 
     FM192200 01006KT P6SM -SHSN OVC028 
     FM200000 36006KT 1 1/2SM -SN BR OVC022
       
KPTD 190935Z AUTO 02009KT 10SM OVC040 M19/M25 A3037 RMK AO2
KPOU 190953Z 03003KT 10SM FEW048 M06/M08 A3019 RMK AO2 SLP222 T10561083
KPOU 190538Z 1906/2006 32005KT P6SM BKN050 
     FM192100 07006KT P6SM OVC040 
     FM192200 07006KT 2SM -SN OVC025 
     FM200000 07007KT 1/2SM SN OVC015 
     FM200400 04008KT 1/2SM SN OVC007
       
KROC 190954Z 07011KT 9SM OVC013 M08/M10 A3026 RMK AO2 SNE51 SLP256 P0000 T10781100
KROC 190943Z 1910/2006 04012KT 5SM -SHSN OVC012 
     FM191400 07012KT 2SM -SN OVC010 
     FM191700 06012G20KT 1/2SM SN OVC007 
     FM200100 06014G22KT 1/4SM +SN OVC004
       
KRME 190953Z AUTO 02008KT 10SM OVC037 M09/M13 A3025 RMK AO2 SLP249 T10891128
KRME 190937Z 1910/2006 36008KT P6SM BKN035 
     FM191800 VRB03KT 1 1/2SM -SN OVC025 
     FM192100 08008KT 1/2SM SN OVC012
       
KSLK 190951Z AUTO VRB03KT 10SM OVC032 M16/M18 A3015 RMK AO2 SLP245 T11611178
KSLK 190531Z 1906/2006 33006KT P6SM OVC024 
     TEMPO 1906/1907 4SM -SN BKN014 
     FM190800 33005KT P6SM BKN045 
     FM191100 00000KT P6SM BKN100 
     FM192000 VRB04KT P6SM VCSH OVC045 
     FM192200 07005KT 1 1/2SM -SN BR OVC025
       
KHWV 190856Z AUTO 00000KT 7SM CLR M02/M04 A3020 RMK AO2 SLP228 T10221039 50010
K6B9 190955Z AUTO 01005KT 10SM OVC024 M09/M10 A3019 RMK AO2
KSYR 190954Z 31007KT 9SM -SN OVC038 M09/M12 A3024 RMK AO2 SLP244 P0000 T10891117
KSYR 190937Z 1910/2006 01006KT P6SM OVC040 
     TEMPO 1915/1918 2SM -SN OVC025 
     FM191800 VRB04KT 1SM -SN OVC020 
     FM192100 VRB04KT 1/2SM SN OVC012
       
KART 190856Z AUTO 03012KT 10SM BKN044 M15/M19 A3033 RMK AO2 SLP281 T11501194 53016
KART 190943Z 1910/2006 03012KT P6SM BKN060 
     FM192000 04010KT 2SM -SN OVC015 
     FM192300 05012KT 1/2SM SN OVC007
       
KELZ 190856Z AUTO 36005KT 10SM OVC026 M07/M09 A3013 RMK AO2 SLP234 T10721094 53002 $
KFOK 190953Z AUTO 00000KT 10SM CLR M06/M08 A3021 RMK AO2 SLP231 I1000 T10611078
KHPN 190856Z 30003KT 10SM FEW050 M02/M06 A3018 RMK AO2 SLP228 T10221061 50009
KHPN 190833Z 1909/2006 30005KT P6SM FEW050 SCT250 
     FM191400 04005KT P6SM SCT120 BKN250 
     FM191600 05005KT P6SM SCT025 BKN035 
     FM192100 09009KT P6SM -SN SCT025 OVC040 
     FM192300 09010KT 3SM -SN BR SCT009 OVC015 
     FM200000 09011G19KT 1 1/2SM -SN OVC015 
     FM200300 08012G23KT 1/2SM SN FG OVC009 
     FM200500 08012G19KT 1SM FZRASN BR OVC009 AMD NOT SKED
       
KSDC 190955Z AUTO 05006KT 10SM -SN BKN015 OVC020 M08/M11 A3028 RMK AO2